Station: Jandakot  

  Atmospheric Gas Attenuation - ITU Rec 676-11   ----------------- dB/100km -----------------
Date Time Temp RH % AH g/m3 Dew Point Wind Direction Speed kph Gust kph Barometer mB Rainfall Since 9am 24GHz 47GHz 76GHz 122GHz 134GHz 241GHz
08/05 09:20 17.7 57 8.6 9.1 19 22 1030.3 0 19.4 25.4 38.6 101.1 94.9 326.7
08/05 09:10 17.2 59 8.64 9.1 15 17 1030.4 0 19.5 25.6 39.0 102.2 96.1 330.6
08/05 09:00 16.8 60 8.58 9 15 20 1030.5 0 19.4 25.6 39.0 102.1 95.8 329.6
08/05 08:50 16.4 64 8.93 9.6 11 11 1030.6 0 20.1 26.3 40.6 106.3 100.8 347.2
08/05 08:40 15.8 66 8.88 9.5 13 17 1030.7 0 20.1 26.4 40.7 106.6 101.0 347.5
08/05 08:30 15.2 66 8.57 8.9 11 15 1030.7 0 19.4 26.1 39.8 104.1 97.7 335.9
08/05 08:20 14.8 68 8.61 9 11 13 1030.7 0 19.5 26.3 40.1 105.1 98.7 339.4
08/05 08:10 14.2 70 8.55 8.8 9 9 1030.6 0 19.4 26.3 40.2 105.2 98.6 339.2
08/05 08:00 13.7 72 8.53 8.7 6 7 1030.6 0 19.4 26.5 40.3 105.6 99.0 340.4
08/05 07:50 12.8 74 8.29 8.3 6 6 1030.5 0 19.0 26.3 39.8 104.2 96.9 333.0
08/05 07:40 12 77 8.21 8.1 7 9 1030.4 0 18.8 26.4 39.9 104.4 96.8 332.6
08/05 07:30 10.8 79 7.81 7.3 11 11 1030.3 0 18.0 26.1 38.8 101.6 92.9 318.6
08/05 07:20 11.3 75 7.65 7 9 11 1030.2 0 17.7 25.7 37.9 99.2 90.2 309.1
08/05 07:10 10.1 82 7.76 7.2 9 11 1030 0 18.0 26.2 39.0 101.9 93.0 319.0
08/05 07:00 9.2 78 6.97 5.6 9 11 1029.9 0 16.3 25.2 36.1 94.4 83.4 285.1
08/05 06:50 10.2 76 7.23 6.2 7 9 1029.8 0 16.8 25.3 36.7 96.0 85.8 293.6
08/05 06:40 11.4 72 7.39 6.5 9 13 1029.8 0 17.1 25.2 36.8 96.2 86.6 296.5
08/05 06:30 11.7 71 7.43 6.6 7 11 1029.8 0 17.2 25.2 36.8 96.3 86.8 297.2
08/05 06:20 11.6 72 7.48 6.7 6 7 1029.8 0 17.3 25.3 37.1 97.0 87.5 299.9
08/05 06:10 11.3 73 7.45 6.6 6 7 1029.7 0 17.2 25.4 37.1 97.0 87.5 299.6
08/05 06:00 10.3 78 7.47 6.6 9 13 1029.7 0 17.3 25.7 37.7 98.4 88.9 304.4
08/05 05:50 9.9 82 7.66 7 11 11 1029.7 0 17.7 26.1 38.6 101.0 91.9 315.0
08/05 05:40 9.1 81 7.19 6 11 13 1029.7 0 16.8 25.6 37.1 96.9 86.4 295.8
08/05 05:30 9.8 77 7.15 6 11 11 1029.7 0 16.7 25.3 36.6 95.6 85.1 291.3
08/05 05:20 11.4 72 7.39 6.5 9 11 1029.7 0 17.1 25.2 36.8 96.2 86.6 296.5
08/05 05:10 12.9 68 7.66 7.1 7 9 1029.6 0 17.6 25.3 37.2 97.3 88.4 303.2
08/05 05:00 13 66 7.49 6.8 13 15 1029.6 0 17.2 25.0 36.5 95.3 86.1 295.1
08/05 04:50 13.3 66 7.63 7.1 13 13 1029.5 0 17.5 25.1 36.9 96.4 87.6 300.3
08/05 04:40 13.6 65 7.65 7.2 13 15 1029.4 0 17.6 25.0 36.8 96.3 87.5 300.0
08/05 04:30 14 63 7.6 7.1 15 20 1029.4 0 17.4 24.8 36.5 95.3 86.4 296.3
08/05 04:20 14.6 62 7.76 7.4 19 20 1029.3 0 17.7 24.9 36.8 96.2 87.8 301.2
08/05 04:10 14.4 62 7.66 7.2 17 19 1029.2 0 17.5 24.8 36.5 95.4 86.7 297.4
08/05 04:00 14 63 7.6 7.1 17 19 1029.2 0 17.4 24.8 36.4 95.3 86.4 296.2
08/05 03:50 14.3 62 7.62 7.1 17 19 1029.1 0 17.5 24.8 36.4 95.1 86.3 296.0
08/05 03:40 14.3 62 7.62 7.1 15 17 1029.1 0 17.5 24.8 36.4 95.1 86.3 296.0
08/05 03:30 14.6 61 7.63 7.2 17 20 1029.1 0 17.5 24.7 36.3 94.8 86.1 295.3
08/05 03:20 14.7 61 7.68 7.3 15 17 1029 0 17.6 24.8 36.4 95.2 86.6 297.2
08/05 03:10 14.8 61 7.73 7.4 17 19 1029 0 17.7 24.8 36.6 95.6 87.1 299.0
08/05 03:00 14.8 61 7.73 7.4 17 28 1029 0 17.7 24.8 36.6 95.6 87.1 299.0
08/05 02:50 15.1 60 7.74 7.4 19 20 1029 0 17.7 24.7 36.5 95.4 86.9 298.3
08/05 02:40 15.1 60 7.74 7.4 17 20 1029 0 17.7 24.7 36.5 95.4 86.9 298.3
08/05 02:30 15 59 7.57 7.1 15 22 1028.9 0 17.3 24.5 35.9 93.7 84.9 291.1
08/05 02:20 15.5 59 7.8 7.5 17 19 1028.9 0 17.8 24.7 36.5 95.5 87.3 299.5
08/05 02:10 15.5 57 7.53 7 17 19 1028.9 0 17.2 24.3 35.5 92.7 83.8 287.6
08/05 02:00 15.7 57 7.63 7.2 17 26 1028.9 0 17.4 24.4 35.8 93.5 84.9 291.2
08/05 01:50 16 56 7.63 7.2 19 20 1029 0 17.4 24.3 35.7 93.2 84.6 290.2
08/05 01:40 16 56 7.63 7.2 17 20 1029 0 17.4 24.3 35.7 93.2 84.6 290.2
08/05 01:30 16.2 55 7.58 7.2 19 28 1029 0 17.3 24.2 35.4 92.4 83.7 287.3
08/05 01:20 15.7 57 7.63 7.2 19 24 1029 0 17.4 24.4 35.8 93.5 84.9 291.3
08/05 01:10 15.9 56 7.58 7.1 15 19 1028.9 0 17.3 24.3 35.5 92.8 84.0 288.3
08/05 01:00 16.1 55 7.54 7.1 19 26 1028.9 0 17.2 24.2 35.3 92.2 83.3 285.8
08/05 00:50 16.2 55 7.58 7.2 15 17 1028.9 0 17.3 24.2 35.4 92.4 83.7 287.2
08/05 00:40 16.1 55 7.54 7.1 20 26 1028.9 0 17.2 24.2 35.3 92.2 83.3 285.8
08/05 00:30 16.2 54 7.45 6.9 20 33 1028.9 0 17.0 24.0 34.9 91.1 82.1 281.6
08/05 00:20 16.2 55 7.58 7.2 17 20 1028.9 0 17.3 24.2 35.4 92.4 83.7 287.2
08/05 00:10 16.1 54 7.4 6.8 17 20 1028.9 0 16.9 24.0 34.7 90.7 81.6 279.8
08/05 00:00 16.1 54 7.4 6.8 17 24 1028.9 0 16.9 24.0 34.7 90.7 81.6 279.8
07/05 23:50 16.1 54 7.4 6.8 19 20 1028.9 0 16.9 24.0 34.7 90.7 81.6 279.8
07/05 23:40 16.6 53 7.49 7 19 22 1028.9 0 17.1 24.0 34.9 91.1 82.2 281.9
07/05 23:30 16.8 52 7.43 6.9 19 32 1028.8 0 17.0 23.8 34.5 90.2 81.2 278.6
07/05 23:20 16.9 52 7.48 7 20 26 1028.8 0 17.1 23.9 34.7 90.6 81.8 280.4
07/05 23:10 16.8 52 7.43 6.9 17 20 1028.9 0 17.0 23.8 34.6 90.3 81.3 278.6
07/05 23:00 16.7 52 7.39 6.8 15 20 1028.9 0 16.9 23.8 34.4 90.0 80.9 277.2
07/05 22:50 16.8 51 7.29 6.6 15 19 1029 0 16.7 23.6 34.0 88.9 79.5 272.6
07/05 22:40 16.3 53 7.35 6.7 11 15 1029 0 16.8 23.8 34.5 90.0 80.8 276.9
07/05 22:30 16 53 7.22 6.4 11 20 1028.9 0 16.5 23.7 34.1 89.1 79.5 272.3
07/05 22:20 15.5 55 7.27 6.5 7 11 1028.8 0 16.7 23.9 34.5 90.1 80.6 276.2
07/05 22:10 15 56 7.18 6.3 9 11 1028.7 0 16.5 23.9 34.4 89.7 80.0 273.9
07/05 22:00 15.1 54 6.97 5.9 4 7 1028.7 0 16.1 23.6 33.5 87.5 77.3 264.5
07/05 21:50 15.6 52 6.92 5.8 4 6 1028.8 0 15.9 23.4 33.2 86.5 76.2 260.7
07/05 21:40 15.6 52 6.92 5.8 0 2 1028.7 0 15.9 23.3 33.1 86.5 76.2 260.7
07/05 21:30 15.9 51 6.91 5.8 2 7 1028.6 0 15.9 23.3 33.0 86.1 75.8 259.3
07/05 21:20 16.3 50 6.94 5.9 6 7 1028.5 0 15.9 23.2 32.9 85.9 75.7 259.2
07/05 21:10 16.1 50 6.85 5.7 6 6 1028.5 0 15.8 23.1 32.7 85.2 74.8 256.0
07/05 21:00 16.2 50 6.89 5.8 9 11 1028.4 0 15.8 23.1 32.8 85.5 75.2 257.4
07/05 20:50 16 50 6.81 5.6 7 9 1028.3 0 15.7 23.1 32.6 84.9 74.4 254.6
07/05 20:40 16.1 50 6.85 5.7 9 11 1028.2 0 15.8 23.1 32.7 85.2 74.8 256.0
07/05 20:30 16.8 48 6.86 5.7 9 15 1028.2 0 15.8 22.9 32.4 84.6 74.3 254.2
07/05 20:20 16.9 48 6.9 5.8 11 13 1028.2 0 15.8 23.0 32.5 84.9 74.7 255.6
07/05 20:10 17.6 46 6.9 5.9 9 13 1028.2 0 15.8 22.8 32.3 84.1 74.0 253.4
07/05 20:00 17.8 46 6.98 6 11 20 1028.2 0 16.0 22.9 32.5 84.7 74.8 256.1
07/05 19:50 17.2 47 6.88 5.8 9 11 1028.1 0 15.8 22.9 32.3 84.4 74.1 253.8
07/05 19:40 17 48 6.95 5.9 11 11 1028.2 0 15.9 23.0 32.7 85.2 75.2 257.3
07/05 19:30 17.1 48 6.99 6 9 13 1028.2 0 16.0 23.1 32.8 85.5 75.6 258.7
07/05 19:20 16.8 49 7.01 6 11 13 1028.1 0 16.1 23.2 33.0 86.0 76.1 260.5
07/05 19:10 16.7 50 7.11 6.2 13 13 1028.1 0 16.3 23.3 33.4 87.1 77.4 265.1
07/05 19:00 17.2 48 7.03 6.1 15 20 1028 0 16.1 23.1 32.9 85.8 75.9 260.0
07/05 18:50 16.8 50 7.15 6.3 15 15 1028 0 16.4 23.4 33.5 87.4 77.8 266.4
07/05 18:40 16.6 51 7.2 6.4 13 13 1028 0 16.5 23.5 33.7 88.1 78.6 269.2
07/05 18:30 16.8 51 7.29 6.6 13 19 1028 0 16.7 23.6 34.0 88.8 79.5 272.4
07/05 18:20 17.1 50 7.28 6.6 13 15 1027.8 0 16.6 23.5 33.8 88.3 79.0 270.9
07/05 18:10 17.3 50 7.37 6.8 13 17 1027.8 0 16.8 23.6 34.1 89.0 79.9 274.1
07/05 18:00 17.4 49 7.26 6.6 9 13 1027.7 0 16.6 23.4 33.6 87.8 78.5 269.0
07/05 17:50 17.9 48 7.33 6.7 9 11 1027.7 0 16.7 23.3 33.7 87.9 78.8 270.3
07/05 17:40 18.8 45 7.25 6.6 11 13 1027.5 0 16.5 23.0 33.0 86.2 77.0 264.0
07/05 17:30 19.3 44 7.3 6.8 15 20 1027.4 0 16.6 22.9 33.0 86.1 77.1 264.4
07/05 17:20 20 42 7.26 6.7 17 19 1027.4 0 16.5 22.7 32.6 85.0 76.0 260.5
07/05 17:10 20.5 40 7.12 6.4 19 22 1027.4 0 16.2 22.4 31.9 83.2 73.9 253.2
07/05 17:00 20.9 40 7.28 6.8 22 30 1027.4 0 16.5 22.5 32.3 84.3 75.4 258.4
07/05 16:50 21.2 39 7.23 6.7 19 22 1027.4 0 16.4 22.4 32.0 83.5 74.5 255.5

Last Refresh: 08-May-2026 11:03:24

Bureau of Meteorology